sensor_id;sensor_type;location;lat;lon;timestamp;pressure;altitude;pressure_sealevel;temperature;humidity
38852;BME280;24605;50.092;9.182;2024-03-23T00:53:52;154125.03;;;8.19;100.00
38852;BME280;24605;50.092;9.182;2024-03-23T00:56:18;154092.50;;;8.06;100.00
38852;BME280;24605;50.092;9.182;2024-03-23T00:58:44;154153.63;;;8.30;100.00
38852;BME280;24605;50.092;9.182;2024-03-23T01:01:10;154139.31;;;8.25;100.00
38852;BME280;24605;50.092;9.182;2024-03-23T01:03:36;154139.31;;;8.25;100.00
38852;BME280;24605;50.092;9.182;2024-03-23T01:06:02;154175.78;;;8.39;100.00
38852;BME280;24605;50.092;9.182;2024-03-23T01:08:29;154217.47;;;8.56;100.00
38852;BME280;24605;50.092;9.182;2024-03-23T01:10:59;154179.66;;;8.41;100.00
38852;BME280;24605;50.092;9.182;2024-03-23T01:13:27;154227.84;;;8.60;100.00
38852;BME280;24605;50.092;9.182;2024-03-23T01:15:53;154195.31;;;8.47;100.00
38852;BME280;24605;50.092;9.182;2024-03-23T01:18:21;154209.66;;;8.53;100.00
38852;BME280;24605;50.092;9.182;2024-03-23T01:20:47;154286.44;;;8.83;100.00
38852;BME280;24605;50.092;9.182;2024-03-23T01:23:14;154328.09;;;9.00;100.00
38852;BME280;24605;50.092;9.182;2024-03-23T01:25:39;154338.53;;;9.04;100.00
38852;BME280;24605;50.092;9.182;2024-03-23T01:28:06;154372.38;;;9.17;100.00
38852;BME280;24605;50.092;9.182;2024-03-23T01:30:35;154389.31;;;9.24;100.00
38852;BME280;24605;50.092;9.182;2024-03-23T01:33:02;154395.81;;;9.27;100.00
38852;BME280;24605;50.092;9.182;2024-03-23T01:35:28;154390.66;;;9.24;100.00
38852;BME280;24605;50.092;9.182;2024-03-23T01:37:54;154395.81;;;9.27;100.00
38852;BME280;24605;50.092;9.182;2024-03-23T01:40:20;154416.66;;;9.35;100.00
38852;BME280;24605;50.092;9.182;2024-03-23T01:43:04;154332.03;;;9.01;100.00
38852;BME280;24605;50.092;9.182;2024-03-23T01:45:30;154328.09;;;9.00;100.00
38852;BME280;24605;50.092;9.182;2024-03-23T01:47:58;154338.53;;;9.04;100.00
38852;BME280;24605;50.092;9.182;2024-03-23T01:50:24;154315.09;;;8.94;100.00
38852;BME280;24605;50.092;9.182;2024-03-23T01:52:50;154259.13;;;8.72;100.00
38852;BME280;24605;50.092;9.182;2024-03-23T01:55:16;154299.50;;;8.88;100.00
38852;BME280;24605;50.092;9.182;2024-03-23T01:57:43;154281.28;;;8.81;100.00
38852;BME280;24605;50.092;9.182;2024-03-23T02:00:09;154316.38;;;8.95;100.00
38852;BME280;24605;50.092;9.182;2024-03-23T02:02:46;154343.75;;;9.06;100.00
38852;BME280;24605;50.092;9.182;2024-03-23T02:05:12;154294.28;;;8.86;100.00
38852;BME280;24605;50.092;9.182;2024-03-23T02:07:40;154277.34;;;8.80;100.00
38852;BME280;24605;50.092;9.182;2024-03-23T02:10:07;154216.16;;;8.55;100.00
38852;BME280;24605;50.092;9.182;2024-03-23T02:12:34;154300.78;;;8.89;100.00
38852;BME280;24605;50.092;9.182;2024-03-23T02:15:00;154225.31;;;8.59;100.00
38852;BME280;24605;50.092;9.182;2024-03-23T02:17:28;154272.13;;;8.77;100.00
38852;BME280;24605;50.092;9.182;2024-03-23T02:19:54;154315.09;;;8.94;100.00
38852;BME280;24605;50.092;9.182;2024-03-23T02:22:21;154352.88;;;9.09;100.00
38852;BME280;24605;50.092;9.182;2024-03-23T02:24:46;154283.84;;;8.82;100.00
38852;BME280;24605;50.092;9.182;2024-03-23T02:27:12;154243.50;;;8.66;100.00
38852;BME280;24605;50.092;9.182;2024-03-23T02:29:38;154230.47;;;8.61;100.00
38852;BME280;24605;50.092;9.182;2024-03-23T02:32:05;154221.38;;;8.57;100.00
38852;BME280;24605;50.092;9.182;2024-03-23T02:34:30;154270.84;;;8.77;100.00
38852;BME280;24605;50.092;9.182;2024-03-23T02:36:57;154287.78;;;8.84;100.00
38852;BME280;24605;50.092;9.182;2024-03-23T02:39:22;154252.63;;;8.70;100.00
38852;BME280;24605;50.092;9.182;2024-03-23T02:41:49;154257.84;;;8.72;100.00
38852;BME280;24605;50.092;9.182;2024-03-23T02:44:14;154350.25;;;9.08;100.00
38852;BME280;24605;50.092;9.182;2024-03-23T02:46:41;154342.44;;;9.05;100.00
38852;BME280;24605;50.092;9.182;2024-03-23T02:49:07;154342.44;;;9.05;100.00
38852;BME280;24605;50.092;9.182;2024-03-23T02:51:34;154350.25;;;9.08;100.00
38852;BME280;24605;50.092;9.182;2024-03-23T02:53:59;154356.78;;;9.11;100.00
38852;BME280;24605;50.092;9.182;2024-03-23T02:56:25;154348.94;;;9.08;100.00
38852;BME280;24605;50.092;9.182;2024-03-23T02:58:51;154365.88;;;9.15;100.00
38852;BME280;24605;50.092;9.182;2024-03-23T03:01:17;154393.25;;;9.25;100.00
38852;BME280;24605;50.092;9.182;2024-03-23T03:03:43;154320.31;;;8.97;100.00
38852;BME280;24605;50.092;9.182;2024-03-23T03:06:10;154406.25;;;9.31;100.00
38852;BME280;24605;50.092;9.182;2024-03-23T03:08:35;154440.09;;;9.44;100.00
38852;BME280;24605;50.092;9.182;2024-03-23T03:11:02;154447.94;;;9.47;100.00
38852;BME280;24605;50.092;9.182;2024-03-23T03:13:27;154460.94;;;9.52;100.00
38852;BME280;24605;50.092;9.182;2024-03-23T03:15:53;154457.03;;;9.51;100.00
38852;BME280;24605;50.092;9.182;2024-03-23T03:18:19;154477.88;;;9.59;100.00
38852;BME280;24605;50.092;9.182;2024-03-23T03:20:45;154432.31;;;9.41;100.00
38852;BME280;24605;50.092;9.182;2024-03-23T03:23:11;154479.22;;;9.60;100.00
38852;BME280;24605;50.092;9.182;2024-03-23T03:25:37;154479.22;;;9.60;100.00
38852;BME280;24605;50.092;9.182;2024-03-23T03:28:03;154489.59;;;9.64;100.00
38852;BME280;24605;50.092;9.182;2024-03-23T03:30:30;154429.72;;;9.40;100.00
38852;BME280;24605;50.092;9.182;2024-03-23T03:32:56;154453.16;;;9.49;100.00
38852;BME280;24605;50.092;9.182;2024-03-23T03:35:23;154506.56;;;9.70;100.00
38852;BME280;24605;50.092;9.182;2024-03-23T03:37:48;154468.78;;;9.55;100.00
38852;BME280;24605;50.092;9.182;2024-03-23T03:40:15;154522.16;;;9.77;100.00
38852;BME280;24605;50.092;9.182;2024-03-23T03:42:41;154487.00;;;9.63;100.00
38852;BME280;24605;50.092;9.182;2024-03-23T03:45:07;154494.84;;;9.66;100.00
38852;BME280;24605;50.092;9.182;2024-03-23T03:47:33;154494.84;;;9.66;100.00
38852;BME280;24605;50.092;9.182;2024-03-23T03:49:59;154423.19;;;9.37;100.00
38852;BME280;24605;50.092;9.182;2024-03-23T03:52:25;154455.75;;;9.50;100.00
38852;BME280;24605;50.092;9.182;2024-03-23T03:55:00;154483.09;;;9.61;100.00
38852;BME280;24605;50.092;9.182;2024-03-23T03:57:27;154424.47;;;9.38;100.00
38852;BME280;24605;50.092;9.182;2024-03-23T03:59:53;154480.50;;;9.60;100.00
38852;BME280;24605;50.092;9.182;2024-03-23T04:02:19;154472.66;;;9.57;100.00
38852;BME280;24605;50.092;9.182;2024-03-23T04:04:45;154477.88;;;9.59;100.00
38852;BME280;24605;50.092;9.182;2024-03-23T04:07:11;154437.53;;;9.43;100.00
38852;BME280;24605;50.092;9.182;2024-03-23T04:09:37;154471.38;;;9.56;100.00
38852;BME280;24605;50.092;9.182;2024-03-23T04:12:02;154476.59;;;9.59;100.00
38852;BME280;24605;50.092;9.182;2024-03-23T04:14:29;154474.00;;;9.57;100.00
38852;BME280;24605;50.092;9.182;2024-03-23T04:16:54;154432.31;;;9.41;100.00
38852;BME280;24605;50.092;9.182;2024-03-23T04:19:21;154412.75;;;9.33;100.00
38852;BME280;24605;50.092;9.182;2024-03-23T04:21:46;154445.31;;;9.46;100.00
38852;BME280;24605;50.092;9.182;2024-03-23T04:24:13;154416.66;;;9.35;100.00
38852;BME280;24605;50.092;9.182;2024-03-23T04:26:41;154445.31;;;9.46;100.00
38852;BME280;24605;50.092;9.182;2024-03-23T04:29:08;154459.66;;;9.52;100.00
38852;BME280;24605;50.092;9.182;2024-03-23T04:31:33;154433.59;;;9.41;100.00
38852;BME280;24605;50.092;9.182;2024-03-23T04:34:01;154454.44;;;9.50;100.00
38852;BME280;24605;50.092;9.182;2024-03-23T04:36:26;154434.94;;;9.42;100.00
38852;BME280;24605;50.092;9.182;2024-03-23T04:38:53;154420.59;;;9.36;100.00
38852;BME280;24605;50.092;9.182;2024-03-23T04:41:19;154389.31;;;9.24;100.00
38852;BME280;24605;50.092;9.182;2024-03-23T04:43:45;154399.75;;;9.28;100.00
38852;BME280;24605;50.092;9.182;2024-03-23T04:46:12;154420.59;;;9.36;100.00
38852;BME280;24605;50.092;9.182;2024-03-23T04:48:38;154359.38;;;9.12;100.00
38852;BME280;24605;50.092;9.182;2024-03-23T04:51:05;154389.31;;;9.24;100.00
38852;BME280;24605;50.092;9.182;2024-03-23T04:53:31;154363.28;;;9.14;100.00
38852;BME280;24605;50.092;9.182;2024-03-23T04:55:58;154304.66;;;8.90;100.00
38852;BME280;24605;50.092;9.182;2024-03-23T04:58:25;154313.81;;;8.94;100.00
38852;BME280;24605;50.092;9.182;2024-03-23T05:00:54;154217.47;;;8.56;100.00
38852;BME280;24605;50.092;9.182;2024-03-23T05:03:21;154164.06;;;8.35;100.00
38852;BME280;24605;50.092;9.182;2024-03-23T05:05:48;154013.16;;;7.75;100.00
38852;BME280;24605;50.092;9.182;2024-03-23T05:08:15;153971.47;;;7.58;100.00
38852;BME280;24605;50.092;9.182;2024-03-23T05:10:42;153920.78;;;7.38;100.00
38852;BME280;24605;50.092;9.182;2024-03-23T05:13:09;153862.25;;;7.15;100.00
38852;BME280;24605;50.092;9.182;2024-03-23T05:15:35;153811.56;;;6.95;100.00
38852;BME280;24605;50.092;9.182;2024-03-23T05:18:01;153711.47;;;6.55;100.00
38852;BME280;24605;50.092;9.182;2024-03-23T05:20:26;153745.28;;;6.68;100.00
38852;BME280;24605;50.092;9.182;2024-03-23T05:22:55;153693.28;;;6.48;100.00
38852;BME280;24605;50.092;9.182;2024-03-23T05:25:20;153636.13;;;6.25;100.00
38852;BME280;24605;50.092;9.182;2024-03-23T05:27:48;153685.47;;;6.45;100.00
38852;BME280;24605;50.092;9.182;2024-03-23T05:30:14;153668.59;;;6.38;100.00
38852;BME280;24605;50.092;9.182;2024-03-23T05:32:40;153660.78;;;6.35;100.00
38852;BME280;24605;50.092;9.182;2024-03-23T05:35:07;153662.06;;;6.35;100.00
38852;BME280;24605;50.092;9.182;2024-03-23T05:37:34;153640.00;;;6.26;100.00
38852;BME280;24605;50.092;9.182;2024-03-23T05:40:00;153623.09;;;6.20;100.00
38852;BME280;24605;50.092;9.182;2024-03-23T05:42:26;153575.03;;;6.01;100.00
38852;BME280;24605;50.092;9.182;2024-03-23T05:44:52;153612.72;;;6.16;100.00
38852;BME280;24605;50.092;9.182;2024-03-23T05:47:18;153563.31;;;5.96;100.00
38852;BME280;24605;50.092;9.182;2024-03-23T05:49:45;153576.31;;;6.01;100.00
38852;BME280;24605;50.092;9.182;2024-03-23T05:52:13;153546.41;;;5.89;100.00
38852;BME280;24605;50.092;9.182;2024-03-23T05:54:38;153532.09;;;5.84;100.00
38852;BME280;24605;50.092;9.182;2024-03-23T05:57:05;153478.84;;;5.62;100.00
38852;BME280;24605;50.092;9.182;2024-03-23T05:59:33;153459.41;;;5.55;100.00
38852;BME280;24605;50.092;9.182;2024-03-23T06:02:00;153456.78;;;5.54;100.00
38852;BME280;24605;50.092;9.182;2024-03-23T06:04:25;153473.66;;;5.60;100.00
38852;BME280;24605;50.092;9.182;2024-03-23T06:06:52;153394.47;;;5.29;100.00
38852;BME280;24605;50.092;9.182;2024-03-23T06:09:18;153443.78;;;5.48;100.00
38852;BME280;24605;50.092;9.182;2024-03-23T06:11:45;153402.25;;;5.32;100.00
38852;BME280;24605;50.092;9.182;2024-03-23T06:14:10;153339.94;;;5.07;100.00
38852;BME280;24605;50.092;9.182;2024-03-23T06:16:37;153391.88;;;5.28;100.00
38852;BME280;24605;50.092;9.182;2024-03-23T06:19:03;153356.81;;;5.14;100.00
38852;BME280;24605;50.092;9.182;2024-03-23T06:21:32;153326.97;;;5.02;100.00
38852;BME280;24605;50.092;9.182;2024-03-23T06:23:58;153326.97;;;5.02;100.00
38852;BME280;24605;50.092;9.182;2024-03-23T06:26:24;153275.03;;;4.81;100.00
38852;BME280;24605;50.092;9.182;2024-03-23T06:28:49;153336.03;;;5.06;100.00
38852;BME280;24605;50.092;9.182;2024-03-23T06:31:16;153237.38;;;4.66;100.00
38852;BME280;24605;50.092;9.182;2024-03-23T06:33:42;153258.13;;;4.75;100.00
38852;BME280;24605;50.092;9.182;2024-03-23T06:36:11;153202.34;;;4.52;100.00
38852;BME280;24605;50.092;9.182;2024-03-23T06:38:37;153225.69;;;4.62;100.00
38852;BME280;24605;50.092;9.182;2024-03-23T06:41:05;153163.41;;;4.37;100.00
38852;BME280;24605;50.092;9.182;2024-03-23T06:43:31;153230.91;;;4.64;100.00
38852;BME280;24605;50.092;9.182;2024-03-23T06:45:57;153184.19;;;4.45;100.00
38852;BME280;24605;50.092;9.182;2024-03-23T06:48:23;153188.06;;;4.47;100.00
38852;BME280;24605;50.092;9.182;2024-03-23T06:50:49;153169.91;;;4.39;100.00
38852;BME280;24605;50.092;9.182;2024-03-23T06:53:15;153201.06;;;4.52;100.00
38852;BME280;24605;50.092;9.182;2024-03-23T06:55:42;153197.13;;;4.50;100.00
38852;BME280;24605;50.092;9.182;2024-03-23T06:58:07;153193.25;;;4.49;100.00
38852;BME280;24605;50.092;9.182;2024-03-23T07:00:35;153198.47;;;4.51;100.00
38852;BME280;24605;50.092;9.182;2024-03-23T07:03:01;153199.72;;;4.51;100.00
38852;BME280;24605;50.092;9.182;2024-03-23T07:05:29;153147.88;;;4.31;100.00
38852;BME280;24605;50.092;9.182;2024-03-23T07:07:54;153232.16;;;4.64;100.00
38852;BME280;24605;50.092;9.182;2024-03-23T07:10:20;153167.28;;;4.38;100.00
38852;BME280;24605;50.092;9.182;2024-03-23T07:12:46;153134.84;;;4.26;100.00
38852;BME280;24605;50.092;9.182;2024-03-23T07:15:12;153121.91;;;4.20;100.00
38852;BME280;24605;50.092;9.182;2024-03-23T07:17:38;153178.97;;;4.43;100.00
38852;BME280;24605;50.092;9.182;2024-03-23T07:20:09;153160.81;;;4.36;100.00
38852;BME280;24605;50.092;9.182;2024-03-23T07:22:36;153124.50;;;4.21;100.00
38852;BME280;24605;50.092;9.182;2024-03-23T07:25:02;153182.91;;;4.45;100.00
38852;BME280;24605;50.092;9.182;2024-03-23T07:27:28;153211.41;;;4.56;100.00
38852;BME280;24605;50.092;9.182;2024-03-23T07:29:55;153160.81;;;4.36;100.00
38852;BME280;24605;50.092;9.182;2024-03-23T07:32:20;153210.13;;;4.55;100.00
38852;BME280;24605;50.092;9.182;2024-03-23T07:34:46;153184.19;;;4.45;100.00
38852;BME280;24605;50.092;9.182;2024-03-23T07:37:12;153188.06;;;4.47;100.00
38852;BME280;24605;50.092;9.182;2024-03-23T07:39:39;153166.00;;;4.38;100.00
38852;BME280;24605;50.092;9.182;2024-03-23T07:42:05;153206.22;;;4.54;100.00
38852;BME280;24605;50.092;9.182;2024-03-23T07:44:31;153202.34;;;4.52;100.00
38852;BME280;24605;50.092;9.182;2024-03-23T07:47:00;153219.22;;;4.59;100.00
38852;BME280;24605;50.092;9.182;2024-03-23T07:49:27;153202.34;;;4.52;100.00
38852;BME280;24605;50.092;9.182;2024-03-23T07:51:53;153190.66;;;4.48;100.00
38852;BME280;24605;50.092;9.182;2024-03-23T07:54:19;153195.84;;;4.50;100.00
38852;BME280;24605;50.092;9.182;2024-03-23T07:56:45;153236.09;;;4.66;100.00
38852;BME280;24605;50.092;9.182;2024-03-23T07:59:11;153194.59;;;4.49;100.00
38852;BME280;24605;50.092;9.182;2024-03-23T08:01:36;153227.03;;;4.62;100.00
38852;BME280;24605;50.092;9.182;2024-03-23T08:04:03;153265.94;;;4.78;100.00
38852;BME280;24605;50.092;9.182;2024-03-23T08:06:28;153232.16;;;4.64;100.00
38852;BME280;24605;50.092;9.182;2024-03-23T08:08:56;153324.38;;;5.01;100.00
38852;BME280;24605;50.092;9.182;2024-03-23T08:11:29;153359.41;;;5.15;100.00
38852;BME280;24605;50.092;9.182;2024-03-23T08:13:56;153408.72;;;5.34;100.00
38852;BME280;24605;50.092;9.182;2024-03-23T08:16:22;153364.56;;;5.17;100.00
38852;BME280;24605;50.092;9.182;2024-03-23T08:18:51;153367.19;;;5.18;100.00
38852;BME280;24605;50.092;9.182;2024-03-23T08:21:17;153310.06;;;4.95;100.00
38852;BME280;24605;50.092;9.182;2024-03-23T08:23:44;153329.53;;;5.03;100.00
38852;BME280;24605;50.092;9.182;2024-03-23T08:26:12;153382.78;;;5.24;100.00
38852;BME280;24605;50.092;9.182;2024-03-23T08:28:39;153330.84;;;5.04;100.00
38852;BME280;24605;50.092;9.182;2024-03-23T08:31:07;153347.72;;;5.10;100.00
38852;BME280;24605;50.092;9.182;2024-03-23T08:33:34;153369.78;;;5.19;100.00
38852;BME280;24605;50.092;9.182;2024-03-23T08:36:02;153347.72;;;5.10;100.00
38852;BME280;24605;50.092;9.182;2024-03-23T08:38:29;153423.00;;;5.40;100.00
38852;BME280;24605;50.092;9.182;2024-03-23T08:43:35;153381.47;;;5.24;100.00
38852;BME280;24605;50.092;9.182;2024-03-23T08:46:10;153359.41;;;5.15;100.00
38852;BME280;24605;50.092;9.182;2024-03-23T08:48:45;153320.44;;;4.99;100.00
38852;BME280;24605;50.092;9.182;2024-03-23T08:51:16;153378.88;;;5.23;100.00
38852;BME280;24605;50.092;9.182;2024-03-23T08:53:43;153425.59;;;5.41;100.00
38852;BME280;24605;50.092;9.182;2024-03-23T08:56:09;153389.28;;;5.27;100.00
38852;BME280;24605;50.092;9.182;2024-03-23T08:58:37;153416.53;;;5.38;100.00
38852;BME280;24605;50.092;9.182;2024-03-23T09:01:08;153433.41;;;5.44;100.00
38852;BME280;24605;50.092;9.182;2024-03-23T09:03:36;153434.69;;;5.45;100.00
38852;BME280;24605;50.092;9.182;2024-03-23T09:06:12;153473.66;;;5.60;100.00
38852;BME280;24605;50.092;9.182;2024-03-23T09:08:40;153486.66;;;5.65;100.00
38852;BME280;24605;50.092;9.182;2024-03-23T09:11:08;153504.84;;;5.73;100.00
38852;BME280;24605;50.092;9.182;2024-03-23T09:13:35;153556.81;;;5.93;100.00
38852;BME280;24605;50.092;9.182;2024-03-23T09:16:02;153585.41;;;6.05;100.00
38852;BME280;24605;50.092;9.182;2024-03-23T09:18:33;153632.19;;;6.23;100.00
38852;BME280;24605;50.092;9.182;2024-03-23T09:20:58;153656.91;;;6.33;100.00
38852;BME280;24605;50.092;9.182;2024-03-23T09:23:25;153664.66;;;6.36;100.00
38852;BME280;24605;50.092;9.182;2024-03-23T09:25:50;153727.09;;;6.61;100.00
38852;BME280;24605;50.092;9.182;2024-03-23T09:28:17;153721.88;;;6.59;100.00
38852;BME280;24605;50.092;9.182;2024-03-23T09:30:42;153738.75;;;6.66;100.00
38852;BME280;24605;50.092;9.182;2024-03-23T09:33:10;153771.28;;;6.79;100.00
38852;BME280;24605;50.092;9.182;2024-03-23T09:35:39;153780.38;;;6.82;100.00
38852;BME280;24605;50.092;9.182;2024-03-23T09:38:06;153749.16;;;6.70;100.00
38852;BME280;24605;50.092;9.182;2024-03-23T09:40:32;153692.00;;;6.47;100.00
38852;BME280;24605;50.092;9.182;2024-03-23T09:42:59;153738.75;;;6.66;100.00
38852;BME280;24605;50.092;9.182;2024-03-23T09:45:28;153732.25;;;6.63;100.00
38852;BME280;24605;50.092;9.182;2024-03-23T09:47:55;153732.25;;;6.63;100.00
38852;BME280;24605;50.092;9.182;2024-03-23T09:50:21;153698.47;;;6.50;100.00
38852;BME280;24605;50.092;9.182;2024-03-23T09:52:48;153768.69;;;6.78;100.00
38852;BME280;24605;50.092;9.182;2024-03-23T09:55:13;153875.28;;;7.20;100.00
38852;BME280;24605;50.092;9.182;2024-03-23T09:57:41;153870.06;;;7.18;100.00
38852;BME280;24605;50.092;9.182;2024-03-23T10:00:08;153883.06;;;7.23;97.43
38852;BME280;24605;50.092;9.182;2024-03-23T10:02:35;153975.41;;;7.60;98.76
38852;BME280;24605;50.092;9.182;2024-03-23T10:05:01;153966.31;;;7.56;96.03
38852;BME280;24605;50.092;9.182;2024-03-23T10:07:27;153889.59;;;7.26;96.70
38852;BME280;24605;50.092;9.182;2024-03-23T10:09:53;153933.81;;;7.43;95.65
38852;BME280;24605;50.092;9.182;2024-03-23T10:12:21;153998.84;;;7.69;96.64
38852;BME280;24605;50.092;9.182;2024-03-23T10:14:47;154037.84;;;7.84;96.20
38852;BME280;24605;50.092;9.182;2024-03-23T10:19:43;153975.41;;;7.60;91.83
38852;BME280;24605;50.092;9.182;2024-03-23T10:22:13;154024.84;;;7.79;90.72
38852;BME280;24605;50.092;9.182;2024-03-23T10:24:39;154015.72;;;7.76;92.17
38852;BME280;24605;50.092;9.182;2024-03-23T10:27:06;153906.47;;;7.32;91.01
38852;BME280;24605;50.092;9.182;2024-03-23T10:29:31;153936.41;;;7.44;91.35
38852;BME280;24605;50.092;9.182;2024-03-23T10:32:09;153928.59;;;7.41;89.56
38852;BME280;24605;50.092;9.182;2024-03-23T10:34:35;153736.19;;;6.65;86.66
38852;BME280;24605;50.092;9.182;2024-03-23T10:37:03;153818.03;;;6.97;88.07
38852;BME280;24605;50.092;9.182;2024-03-23T10:39:36;153828.47;;;7.01;90.92
38852;BME280;24605;50.092;9.182;2024-03-23T10:42:07;153812.88;;;6.95;92.37
38852;BME280;24605;50.092;9.182;2024-03-23T10:44:33;153729.66;;;6.62;92.52
38852;BME280;24605;50.092;9.182;2024-03-23T10:47:01;153889.59;;;7.26;93.54
38852;BME280;24605;50.092;9.182;2024-03-23T10:49:28;153816.75;;;6.97;92.90
38852;BME280;24605;50.092;9.182;2024-03-23T10:52:04;153855.75;;;7.12;96.09
38852;BME280;24605;50.092;9.182;2024-03-23T10:54:30;153801.19;;;6.90;93.10
38852;BME280;24605;50.092;9.182;2024-03-23T10:57:02;153903.91;;;7.31;92.96
38852;BME280;24605;50.092;9.182;2024-03-23T10:59:29;153966.31;;;7.56;89.86
38852;BME280;24605;50.092;9.182;2024-03-23T11:01:58;153972.81;;;7.59;88.45
38852;BME280;24605;50.092;9.182;2024-03-23T11:04:34;154049.56;;;7.89;88.82
38852;BME280;24605;50.092;9.182;2024-03-23T11:07:02;154138.03;;;8.24;87.33
38852;BME280;24605;50.092;9.182;2024-03-23T11:09:42;154164.06;;;8.35;84.35
38852;BME280;24605;50.092;9.182;2024-03-23T11:15:01;154175.78;;;8.39;81.57
38852;BME280;24605;50.092;9.182;2024-03-23T11:17:28;154233.06;;;8.62;80.68
38852;BME280;24605;50.092;9.182;2024-03-23T11:25:16;154362.00;;;9.13;75.10
38852;BME280;24605;50.092;9.182;2024-03-23T11:27:45;154398.44;;;9.28;67.47
38852;BME280;24605;50.092;9.182;2024-03-23T11:30:17;154187.50;;;8.44;71.33
38852;BME280;24605;50.092;9.182;2024-03-23T11:32:45;153781.66;;;6.83;83.50
38852;BME280;24605;50.092;9.182;2024-03-23T11:35:27;153628.31;;;6.22;92.76
38852;BME280;24605;50.092;9.182;2024-03-23T11:40:37;153363.28;;;5.16;100.00
38852;BME280;24605;50.092;9.182;2024-03-23T11:43:05;153413.94;;;5.37;100.00
38852;BME280;24605;50.092;9.182;2024-03-23T11:45:36;153351.59;;;5.12;100.00
38852;BME280;24605;50.092;9.182;2024-03-23T11:50:28;153268.53;;;4.79;100.00
38852;BME280;24605;50.092;9.182;2024-03-23T11:53:21;153150.47;;;4.32;100.00
38852;BME280;24605;50.092;9.182;2024-03-23T11:55:49;153071.31;;;4.00;100.00
38852;BME280;24605;50.092;9.182;2024-03-23T11:58:20;153125.78;;;4.22;100.00
38852;BME280;24605;50.092;9.182;2024-03-23T12:00:52;153184.19;;;4.45;100.00
38852;BME280;24605;50.092;9.182;2024-03-23T12:03:19;153255.53;;;4.74;100.00
38852;BME280;24605;50.092;9.182;2024-03-23T12:05:48;153233.50;;;4.65;100.00
38852;BME280;24605;50.092;9.182;2024-03-23T12:10:50;153368.50;;;5.18;100.00
38852;BME280;24605;50.092;9.182;2024-03-23T12:13:21;153423.00;;;5.40;100.00
38852;BME280;24605;50.092;9.182;2024-03-23T12:15:49;153423.00;;;5.40;100.00
38852;BME280;24605;50.092;9.182;2024-03-23T12:18:17;153394.47;;;5.29;100.00
38852;BME280;24605;50.092;9.182;2024-03-23T12:20:43;153382.78;;;5.24;100.00
38852;BME280;24605;50.092;9.182;2024-03-23T12:23:11;153464.56;;;5.57;100.00
38852;BME280;24605;50.092;9.182;2024-03-23T12:25:38;153493.16;;;5.68;100.00
38852;BME280;24605;50.092;9.182;2024-03-23T12:28:05;153542.50;;;5.88;98.69
38852;BME280;24605;50.092;9.182;2024-03-23T12:30:40;153558.09;;;5.94;96.04
38852;BME280;24605;50.092;9.182;2024-03-23T12:33:06;153500.97;;;5.71;94.45
38852;BME280;24605;50.092;9.182;2024-03-23T12:35:32;153575.03;;;6.01;97.30
38852;BME280;24605;50.092;9.182;2024-03-23T12:37:58;153593.22;;;6.08;94.80
38852;BME280;24605;50.092;9.182;2024-03-23T12:40:24;153623.09;;;6.20;92.52
38852;BME280;24605;50.092;9.182;2024-03-23T12:42:52;153672.47;;;6.39;90.93
38852;BME280;24605;50.092;9.182;2024-03-23T12:45:18;153725.78;;;6.61;88.65
38852;BME280;24605;50.092;9.182;2024-03-23T12:47:44;153743.94;;;6.68;83.25
38852;BME280;24605;50.092;9.182;2024-03-23T12:50:10;153777.78;;;6.81;82.89
38852;BME280;24605;50.092;9.182;2024-03-23T12:52:37;153801.19;;;6.90;76.67
38852;BME280;24605;50.092;9.182;2024-03-23T12:55:03;153849.25;;;7.10;76.82
38852;BME280;24605;50.092;9.182;2024-03-23T12:57:31;153907.78;;;7.33;74.05
38852;BME280;24605;50.092;9.182;2024-03-23T12:59:57;153932.47;;;7.43;73.61
38852;BME280;24605;50.092;9.182;2024-03-23T13:02:23;153959.81;;;7.53;71.56
38852;BME280;24605;50.092;9.182;2024-03-23T13:04:53;153970.19;;;7.58;72.00
38852;BME280;24605;50.092;9.182;2024-03-23T13:07:20;154057.38;;;7.92;68.45
38852;BME280;24605;50.092;9.182;2024-03-23T13:09:46;154065.16;;;7.95;70.34
38852;BME280;24605;50.092;9.182;2024-03-23T13:12:13;154099.00;;;8.09;67.60
38852;BME280;24605;50.092;9.182;2024-03-23T13:14:39;154097.69;;;8.08;69.41
38852;BME280;24605;50.092;9.182;2024-03-23T13:17:06;154162.75;;;8.34;65.96
38852;BME280;24605;50.092;9.182;2024-03-23T13:19:33;154158.84;;;8.32;66.40
38852;BME280;24605;50.092;9.182;2024-03-23T13:22:00;154106.78;;;8.12;66.17
38852;BME280;24605;50.092;9.182;2024-03-23T13:24:27;154057.38;;;7.92;67.53
38852;BME280;24605;50.092;9.182;2024-03-23T13:26:54;154104.22;;;8.11;67.00
38852;BME280;24605;50.092;9.182;2024-03-23T13:29:20;154138.03;;;8.24;66.26
38852;BME280;24605;50.092;9.182;2024-03-23T13:31:47;154237.03;;;8.64;66.60
38852;BME280;24605;50.092;9.182;2024-03-23T13:34:13;154222.69;;;8.58;66.14
38852;BME280;24605;50.092;9.182;2024-03-23T13:36:44;154225.31;;;8.59;67.85
38852;BME280;24605;50.092;9.182;2024-03-23T13:39:10;154171.84;;;8.38;67.75
38852;BME280;24605;50.092;9.182;2024-03-23T13:41:44;154158.84;;;8.32;70.12
38852;BME280;24605;50.092;9.182;2024-03-23T13:44:11;154104.22;;;8.11;70.59
38852;BME280;24605;50.092;9.182;2024-03-23T13:46:40;154056.06;;;7.92;73.44
38852;BME280;24605;50.092;9.182;2024-03-23T13:49:06;153979.31;;;7.61;76.91
38852;BME280;24605;50.092;9.182;2024-03-23T13:51:33;153920.78;;;7.38;78.95
38852;BME280;24605;50.092;9.182;2024-03-23T13:53:58;153710.19;;;6.54;90.56
38852;BME280;24605;50.092;9.182;2024-03-23T13:56:27;153313.94;;;4.97;100.00
38852;BME280;24605;50.092;9.182;2024-03-23T13:58:55;153084.28;;;4.05;100.00
38852;BME280;24605;50.092;9.182;2024-03-23T14:01:23;152754.97;;;2.74;100.00
38852;BME280;24605;50.092;9.182;2024-03-23T14:03:49;152613.75;;;2.18;100.00
38852;BME280;24605;50.092;9.182;2024-03-23T14:06:16;152554.13;;;1.94;100.00